sensor_id;sensor_type;location;lat;lon;timestamp;P1;durP1;ratioP1;P2;durP2;ratioP2
23432;SDS011;41331;45.412;10.992;2023-07-31T00:00:26;6.22;;;2.72;;
23432;SDS011;41331;45.412;10.992;2023-07-31T00:02:54;5.38;;;2.97;;
23432;SDS011;41331;45.412;10.992;2023-07-31T00:05:22;5.22;;;3.10;;
23432;SDS011;41331;45.412;10.992;2023-07-31T00:07:50;6.15;;;2.50;;
23432;SDS011;41331;45.412;10.992;2023-07-31T00:10:17;7.85;;;2.90;;
23432;SDS011;41331;45.412;10.992;2023-07-31T00:12:45;6.30;;;2.72;;
23432;SDS011;41331;45.412;10.992;2023-07-31T00:15:13;5.97;;;3.00;;
23432;SDS011;41331;45.412;10.992;2023-07-31T00:17:41;10.93;;;3.33;;
23432;SDS011;41331;45.412;10.992;2023-07-31T00:20:09;5.78;;;2.92;;
23432;SDS011;41331;45.412;10.992;2023-07-31T00:22:38;5.28;;;2.85;;
23432;SDS011;41331;45.412;10.992;2023-07-31T00:25:06;5.93;;;2.83;;
23432;SDS011;41331;45.412;10.992;2023-07-31T00:27:33;4.70;;;3.08;;
23432;SDS011;41331;45.412;10.992;2023-07-31T00:30:01;5.00;;;2.53;;
23432;SDS011;41331;45.412;10.992;2023-07-31T00:32:28;5.78;;;2.92;;
23432;SDS011;41331;45.412;10.992;2023-07-31T00:34:55;4.78;;;2.92;;
23432;SDS011;41331;45.412;10.992;2023-07-31T00:37:23;5.47;;;2.90;;
23432;SDS011;41331;45.412;10.992;2023-07-31T00:39:50;6.00;;;3.10;;
23432;SDS011;41331;45.412;10.992;2023-07-31T00:42:17;7.15;;;2.95;;
23432;SDS011;41331;45.412;10.992;2023-07-31T00:44:48;5.72;;;2.90;;
23432;SDS011;41331;45.412;10.992;2023-07-31T00:47:15;4.53;;;2.85;;
23432;SDS011;41331;45.412;10.992;2023-07-31T00:49:43;8.25;;;2.90;;
23432;SDS011;41331;45.412;10.992;2023-07-31T00:52:11;4.20;;;2.67;;
23432;SDS011;41331;45.412;10.992;2023-07-31T00:54:38;5.15;;;2.78;;
23432;SDS011;41331;45.412;10.992;2023-07-31T00:57:06;6.30;;;2.90;;
23432;SDS011;41331;45.412;10.992;2023-07-31T00:59:35;5.53;;;2.60;;
23432;SDS011;41331;45.412;10.992;2023-07-31T01:02:02;6.50;;;2.97;;
23432;SDS011;41331;45.412;10.992;2023-07-31T01:04:31;6.00;;;2.50;;
23432;SDS011;41331;45.412;10.992;2023-07-31T01:07:07;5.63;;;3.42;;
23432;SDS011;41331;45.412;10.992;2023-07-31T01:09:43;10.00;;;3.00;;
23432;SDS011;41331;45.412;10.992;2023-07-31T01:12:15;3.60;;;2.28;;
23432;SDS011;41331;45.412;10.992;2023-07-31T01:17:38;5.35;;;2.90;;
23432;SDS011;41331;45.412;10.992;2023-07-31T01:20:14;7.93;;;2.75;;
23432;SDS011;41331;45.412;10.992;2023-07-31T01:27:53;5.15;;;2.47;;
23432;SDS011;41331;45.412;10.992;2023-07-31T01:30:43;3.97;;;2.45;;
23432;SDS011;41331;45.412;10.992;2023-07-31T01:33:15;3.45;;;2.45;;
23432;SDS011;41331;45.412;10.992;2023-07-31T01:35:44;5.75;;;2.67;;
23432;SDS011;41331;45.412;10.992;2023-07-31T01:38:13;4.03;;;2.15;;
23432;SDS011;41331;45.412;10.992;2023-07-31T01:40:41;9.90;;;3.05;;
23432;SDS011;41331;45.412;10.992;2023-07-31T01:43:09;4.13;;;2.78;;
23432;SDS011;41331;45.412;10.992;2023-07-31T01:45:37;5.43;;;2.67;;
23432;SDS011;41331;45.412;10.992;2023-07-31T01:48:04;4.00;;;2.70;;
23432;SDS011;41331;45.412;10.992;2023-07-31T01:50:32;4.90;;;2.60;;
23432;SDS011;41331;45.412;10.992;2023-07-31T01:52:59;4.47;;;2.50;;
23432;SDS011;41331;45.412;10.992;2023-07-31T01:55:26;4.57;;;2.60;;
23432;SDS011;41331;45.412;10.992;2023-07-31T01:57:54;3.95;;;2.70;;
23432;SDS011;41331;45.412;10.992;2023-07-31T02:00:21;4.93;;;2.90;;
23432;SDS011;41331;45.412;10.992;2023-07-31T02:02:49;8.20;;;2.80;;
23432;SDS011;41331;45.412;10.992;2023-07-31T02:05:19;7.03;;;2.80;;
23432;SDS011;41331;45.412;10.992;2023-07-31T02:07:46;6.05;;;2.90;;
23432;SDS011;41331;45.412;10.992;2023-07-31T02:10:14;5.00;;;2.92;;
23432;SDS011;41331;45.412;10.992;2023-07-31T02:12:41;10.32;;;2.97;;
23432;SDS011;41331;45.412;10.992;2023-07-31T02:15:08;5.45;;;2.67;;
23432;SDS011;41331;45.412;10.992;2023-07-31T02:17:36;5.57;;;2.95;;
23432;SDS011;41331;45.412;10.992;2023-07-31T02:20:04;6.07;;;2.70;;
23432;SDS011;41331;45.412;10.992;2023-07-31T02:22:32;4.80;;;2.90;;
23432;SDS011;41331;45.412;10.992;2023-07-31T02:24:59;4.60;;;3.00;;
23432;SDS011;41331;45.412;10.992;2023-07-31T02:27:26;5.13;;;2.90;;
23432;SDS011;41331;45.412;10.992;2023-07-31T02:29:54;3.97;;;2.65;;
23432;SDS011;41331;45.412;10.992;2023-07-31T02:32:22;6.78;;;3.40;;
23432;SDS011;41331;45.412;10.992;2023-07-31T02:34:49;6.05;;;2.88;;
23432;SDS011;41331;45.412;10.992;2023-07-31T02:37:17;5.63;;;3.05;;
23432;SDS011;41331;45.412;10.992;2023-07-31T02:39:44;5.63;;;2.95;;
23432;SDS011;41331;45.412;10.992;2023-07-31T02:42:12;3.95;;;2.50;;
23432;SDS011;41331;45.412;10.992;2023-07-31T02:44:40;5.00;;;2.75;;
23432;SDS011;41331;45.412;10.992;2023-07-31T02:47:07;5.75;;;3.05;;
23432;SDS011;41331;45.412;10.992;2023-07-31T02:49:34;5.07;;;3.10;;
23432;SDS011;41331;45.412;10.992;2023-07-31T02:52:02;6.65;;;3.20;;
23432;SDS011;41331;45.412;10.992;2023-07-31T02:54:30;5.32;;;2.75;;
23432;SDS011;41331;45.412;10.992;2023-07-31T02:56:57;4.78;;;3.17;;
23432;SDS011;41331;45.412;10.992;2023-07-31T02:59:24;7.63;;;3.20;;
23432;SDS011;41331;45.412;10.992;2023-07-31T03:01:52;7.20;;;2.63;;
23432;SDS011;41331;45.412;10.992;2023-07-31T03:04:19;4.55;;;2.90;;
23432;SDS011;41331;45.412;10.992;2023-07-31T03:06:47;4.95;;;2.85;;
23432;SDS011;41331;45.412;10.992;2023-07-31T03:09:14;5.97;;;2.80;;
23432;SDS011;41331;45.412;10.992;2023-07-31T03:11:41;7.65;;;3.40;;
23432;SDS011;41331;45.412;10.992;2023-07-31T03:14:09;7.22;;;3.13;;
23432;SDS011;41331;45.412;10.992;2023-07-31T03:16:36;4.68;;;2.92;;
23432;SDS011;41331;45.412;10.992;2023-07-31T03:19:04;4.97;;;3.03;;
23432;SDS011;41331;45.412;10.992;2023-07-31T03:21:31;5.47;;;3.13;;
23432;SDS011;41331;45.412;10.992;2023-07-31T03:23:59;4.30;;;2.70;;
23432;SDS011;41331;45.412;10.992;2023-07-31T03:26:26;7.00;;;3.45;;
23432;SDS011;41331;45.412;10.992;2023-07-31T03:28:54;5.97;;;3.25;;
23432;SDS011;41331;45.412;10.992;2023-07-31T03:31:21;7.18;;;3.22;;
23432;SDS011;41331;45.412;10.992;2023-07-31T03:33:48;6.07;;;3.47;;
23432;SDS011;41331;45.412;10.992;2023-07-31T03:36:16;7.18;;;3.08;;
23432;SDS011;41331;45.412;10.992;2023-07-31T03:38:43;13.68;;;3.65;;
23432;SDS011;41331;45.412;10.992;2023-07-31T03:41:11;8.23;;;3.58;;
23432;SDS011;41331;45.412;10.992;2023-07-31T03:43:39;5.40;;;3.28;;
23432;SDS011;41331;45.412;10.992;2023-07-31T03:46:07;5.68;;;3.70;;
23432;SDS011;41331;45.412;10.992;2023-07-31T03:48:34;6.00;;;3.47;;
23432;SDS011;41331;45.412;10.992;2023-07-31T03:51:02;4.45;;;3.38;;
23432;SDS011;41331;45.412;10.992;2023-07-31T03:53:31;8.85;;;3.92;;
23432;SDS011;41331;45.412;10.992;2023-07-31T03:55:58;10.32;;;4.10;;
23432;SDS011;41331;45.412;10.992;2023-07-31T03:58:26;6.63;;;4.10;;
23432;SDS011;41331;45.412;10.992;2023-07-31T04:00:53;6.65;;;4.05;;
23432;SDS011;41331;45.412;10.992;2023-07-31T04:03:22;7.22;;;3.88;;
23432;SDS011;41331;45.412;10.992;2023-07-31T04:05:49;6.65;;;4.13;;
23432;SDS011;41331;45.412;10.992;2023-07-31T04:08:17;9.63;;;4.15;;
23432;SDS011;41331;45.412;10.992;2023-07-31T04:10:44;8.00;;;4.72;;
23432;SDS011;41331;45.412;10.992;2023-07-31T04:13:11;9.68;;;4.07;;
23432;SDS011;41331;45.412;10.992;2023-07-31T04:15:39;7.45;;;4.43;;
23432;SDS011;41331;45.412;10.992;2023-07-31T04:18:06;6.70;;;3.95;;
23432;SDS011;41331;45.412;10.992;2023-07-31T04:20:34;5.68;;;3.75;;
23432;SDS011;41331;45.412;10.992;2023-07-31T04:23:01;5.93;;;3.72;;
23432;SDS011;41331;45.412;10.992;2023-07-31T04:25:29;5.72;;;3.70;;
23432;SDS011;41331;45.412;10.992;2023-07-31T04:27:56;7.03;;;3.92;;
23432;SDS011;41331;45.412;10.992;2023-07-31T04:30:23;6.20;;;3.60;;
23432;SDS011;41331;45.412;10.992;2023-07-31T04:32:54;4.93;;;3.40;;
23432;SDS011;41331;45.412;10.992;2023-07-31T04:35:21;5.47;;;3.58;;
23432;SDS011;41331;45.412;10.992;2023-07-31T04:37:48;5.97;;;3.25;;
23432;SDS011;41331;45.412;10.992;2023-07-31T04:40:16;6.80;;;3.38;;
23432;SDS011;41331;45.412;10.992;2023-07-31T04:42:43;6.05;;;3.80;;
23432;SDS011;41331;45.412;10.992;2023-07-31T04:45:12;6.32;;;3.25;;
23432;SDS011;41331;45.412;10.992;2023-07-31T04:47:39;6.72;;;3.60;;
23432;SDS011;41331;45.412;10.992;2023-07-31T04:50:06;6.57;;;3.67;;
23432;SDS011;41331;45.412;10.992;2023-07-31T04:52:34;8.13;;;4.15;;
23432;SDS011;41331;45.412;10.992;2023-07-31T04:55:01;6.22;;;4.05;;
23432;SDS011;41331;45.412;10.992;2023-07-31T04:57:30;7.38;;;4.00;;
23432;SDS011;41331;45.412;10.992;2023-07-31T04:59:57;8.88;;;4.15;;
23432;SDS011;41331;45.412;10.992;2023-07-31T05:02:25;7.25;;;4.63;;
23432;SDS011;41331;45.412;10.992;2023-07-31T05:04:52;12.30;;;4.82;;
23432;SDS011;41331;45.412;10.992;2023-07-31T05:07:20;9.27;;;4.70;;
23432;SDS011;41331;45.412;10.992;2023-07-31T05:09:47;8.90;;;4.78;;
23432;SDS011;41331;45.412;10.992;2023-07-31T05:12:15;13.38;;;5.10;;
23432;SDS011;41331;45.412;10.992;2023-07-31T05:14:42;9.68;;;4.60;;
23432;SDS011;41331;45.412;10.992;2023-07-31T05:17:09;10.60;;;4.85;;
23432;SDS011;41331;45.412;10.992;2023-07-31T05:19:37;11.27;;;4.38;;
23432;SDS011;41331;45.412;10.992;2023-07-31T05:22:04;8.00;;;4.22;;
23432;SDS011;41331;45.412;10.992;2023-07-31T05:24:32;7.60;;;4.30;;
23432;SDS011;41331;45.412;10.992;2023-07-31T05:27:00;7.68;;;3.97;;
23432;SDS011;41331;45.412;10.992;2023-07-31T05:29:27;10.55;;;4.32;;
23432;SDS011;41331;45.412;10.992;2023-07-31T05:31:55;10.95;;;4.22;;
23432;SDS011;41331;45.412;10.992;2023-07-31T05:34:22;6.60;;;3.85;;
23432;SDS011;41331;45.412;10.992;2023-07-31T05:36:50;7.55;;;4.07;;
23432;SDS011;41331;45.412;10.992;2023-07-31T05:39:17;8.82;;;4.15;;
23432;SDS011;41331;45.412;10.992;2023-07-31T05:41:46;10.57;;;3.80;;
23432;SDS011;41331;45.412;10.992;2023-07-31T05:44:14;7.15;;;4.18;;
23432;SDS011;41331;45.412;10.992;2023-07-31T05:46:41;8.82;;;4.15;;
23432;SDS011;41331;45.412;10.992;2023-07-31T05:49:09;5.53;;;4.00;;
23432;SDS011;41331;45.412;10.992;2023-07-31T05:51:36;6.93;;;3.78;;
23432;SDS011;41331;45.412;10.992;2023-07-31T05:54:04;6.28;;;4.00;;
23432;SDS011;41331;45.412;10.992;2023-07-31T05:56:32;8.50;;;4.07;;
23432;SDS011;41331;45.412;10.992;2023-07-31T05:59:01;6.10;;;3.80;;
23432;SDS011;41331;45.412;10.992;2023-07-31T06:01:29;8.05;;;4.22;;
23432;SDS011;41331;45.412;10.992;2023-07-31T06:03:57;10.13;;;3.65;;
23432;SDS011;41331;45.412;10.992;2023-07-31T06:06:24;7.07;;;3.85;;
23432;SDS011;41331;45.412;10.992;2023-07-31T06:08:52;6.05;;;4.10;;
23432;SDS011;41331;45.412;10.992;2023-07-31T06:11:20;8.00;;;3.88;;
23432;SDS011;41331;45.412;10.992;2023-07-31T06:13:47;11.23;;;4.32;;
23432;SDS011;41331;45.412;10.992;2023-07-31T06:16:16;9.00;;;3.80;;
23432;SDS011;41331;45.412;10.992;2023-07-31T06:18:44;6.45;;;3.63;;
23432;SDS011;41331;45.412;10.992;2023-07-31T06:21:11;8.98;;;3.72;;
23432;SDS011;41331;45.412;10.992;2023-07-31T06:23:41;7.50;;;4.10;;
23432;SDS011;41331;45.412;10.992;2023-07-31T06:26:08;7.78;;;3.80;;
23432;SDS011;41331;45.412;10.992;2023-07-31T06:28:36;5.80;;;3.60;;
23432;SDS011;41331;45.412;10.992;2023-07-31T06:31:03;7.35;;;3.63;;
23432;SDS011;41331;45.412;10.992;2023-07-31T06:33:31;5.15;;;3.25;;
23432;SDS011;41331;45.412;10.992;2023-07-31T06:35:58;7.75;;;3.40;;
23432;SDS011;41331;45.412;10.992;2023-07-31T06:38:26;6.82;;;3.00;;
23432;SDS011;41331;45.412;10.992;2023-07-31T06:40:54;5.40;;;3.33;;
23432;SDS011;41331;45.412;10.992;2023-07-31T06:43:21;8.32;;;3.28;;
23432;SDS011;41331;45.412;10.992;2023-07-31T06:45:49;4.60;;;3.00;;
23432;SDS011;41331;45.412;10.992;2023-07-31T06:48:18;8.52;;;3.28;;
23432;SDS011;41331;45.412;10.992;2023-07-31T06:50:46;5.57;;;2.92;;
23432;SDS011;41331;45.412;10.992;2023-07-31T06:53:13;4.70;;;2.47;;
23432;SDS011;41331;45.412;10.992;2023-07-31T06:55:41;7.13;;;3.00;;
23432;SDS011;41331;45.412;10.992;2023-07-31T06:58:08;5.30;;;2.63;;
23432;SDS011;41331;45.412;10.992;2023-07-31T07:00:35;7.45;;;2.70;;
23432;SDS011;41331;45.412;10.992;2023-07-31T07:03:03;3.90;;;2.67;;
23432;SDS011;41331;45.412;10.992;2023-07-31T07:05:30;6.10;;;3.13;;
23432;SDS011;41331;45.412;10.992;2023-07-31T07:07:57;6.88;;;2.75;;
23432;SDS011;41331;45.412;10.992;2023-07-31T07:10:25;6.88;;;2.90;;
23432;SDS011;41331;45.412;10.992;2023-07-31T07:12:52;5.38;;;2.58;;
23432;SDS011;41331;45.412;10.992;2023-07-31T07:15:20;10.60;;;3.00;;
23432;SDS011;41331;45.412;10.992;2023-07-31T07:17:47;6.50;;;3.03;;
23432;SDS011;41331;45.412;10.992;2023-07-31T07:20:17;7.13;;;3.08;;
23432;SDS011;41331;45.412;10.992;2023-07-31T07:22:46;4.18;;;2.72;;
23432;SDS011;41331;45.412;10.992;2023-07-31T07:25:13;5.43;;;2.67;;
23432;SDS011;41331;45.412;10.992;2023-07-31T07:27:41;6.32;;;2.97;;
23432;SDS011;41331;45.412;10.992;2023-07-31T07:30:09;5.32;;;2.80;;
23432;SDS011;41331;45.412;10.992;2023-07-31T07:32:36;4.97;;;2.60;;
23432;SDS011;41331;45.412;10.992;2023-07-31T07:35:04;4.88;;;2.45;;
23432;SDS011;41331;45.412;10.992;2023-07-31T07:37:31;4.47;;;2.42;;
23432;SDS011;41331;45.412;10.992;2023-07-31T07:40:00;4.13;;;2.35;;
23432;SDS011;41331;45.412;10.992;2023-07-31T07:42:27;3.78;;;2.20;;
23432;SDS011;41331;45.412;10.992;2023-07-31T07:44:54;5.78;;;2.58;;
23432;SDS011;41331;45.412;10.992;2023-07-31T07:47:22;7.13;;;3.17;;
23432;SDS011;41331;45.412;10.992;2023-07-31T07:49:49;9.18;;;2.72;;
23432;SDS011;41331;45.412;10.992;2023-07-31T07:52:19;4.53;;;2.60;;
23432;SDS011;41331;45.412;10.992;2023-07-31T07:54:46;6.93;;;2.70;;
23432;SDS011;41331;45.412;10.992;2023-07-31T07:57:14;5.00;;;3.10;;
23432;SDS011;41331;45.412;10.992;2023-07-31T07:59:44;5.78;;;2.83;;
23432;SDS011;41331;45.412;10.992;2023-07-31T08:02:11;5.65;;;3.30;;
23432;SDS011;41331;45.412;10.992;2023-07-31T08:04:39;6.03;;;3.28;;
23432;SDS011;41331;45.412;10.992;2023-07-31T08:07:06;4.20;;;3.05;;
23432;SDS011;41331;45.412;10.992;2023-07-31T08:09:34;5.45;;;3.47;;
23432;SDS011;41331;45.412;10.992;2023-07-31T08:12:02;6.70;;;3.08;;
23432;SDS011;41331;45.412;10.992;2023-07-31T08:14:30;5.05;;;2.78;;
23432;SDS011;41331;45.412;10.992;2023-07-31T08:17:02;7.95;;;3.15;;
23432;SDS011;41331;45.412;10.992;2023-07-31T08:19:30;7.03;;;3.15;;
23432;SDS011;41331;45.412;10.992;2023-07-31T08:21:57;4.93;;;3.20;;
23432;SDS011;41331;45.412;10.992;2023-07-31T08:24:25;6.95;;;2.80;;
23432;SDS011;41331;45.412;10.992;2023-07-31T08:26:52;5.70;;;2.70;;
23432;SDS011;41331;45.412;10.992;2023-07-31T08:29:20;3.53;;;1.88;;
23432;SDS011;41331;45.412;10.992;2023-07-31T08:31:47;2.78;;;1.40;;
23432;SDS011;41331;45.412;10.992;2023-07-31T08:34:15;2.97;;;1.50;;
23432;SDS011;41331;45.412;10.992;2023-07-31T08:36:42;2.17;;;1.25;;
23432;SDS011;41331;45.412;10.992;2023-07-31T08:39:09;2.53;;;1.10;;
23432;SDS011;41331;45.412;10.992;2023-07-31T08:41:38;4.10;;;1.27;;
23432;SDS011;41331;45.412;10.992;2023-07-31T08:44:10;4.72;;;1.25;;
23432;SDS011;41331;45.412;10.992;2023-07-31T08:46:38;4.05;;;1.40;;
23432;SDS011;41331;45.412;10.992;2023-07-31T08:49:07;2.97;;;1.10;;
23432;SDS011;41331;45.412;10.992;2023-07-31T08:51:36;3.50;;;1.20;;
23432;SDS011;41331;45.412;10.992;2023-07-31T08:54:03;1.70;;;1.08;;
23432;SDS011;41331;45.412;10.992;2023-07-31T08:56:34;2.50;;;1.10;;
23432;SDS011;41331;45.412;10.992;2023-07-31T08:59:04;2.13;;;1.10;;
23432;SDS011;41331;45.412;10.992;2023-07-31T09:01:33;2.78;;;1.27;;
23432;SDS011;41331;45.412;10.992;2023-07-31T09:04:05;2.17;;;1.20;;
23432;SDS011;41331;45.412;10.992;2023-07-31T09:06:35;3.55;;;1.33;;
23432;SDS011;41331;45.412;10.992;2023-07-31T09:09:02;1.85;;;1.08;;
23432;SDS011;41331;45.412;10.992;2023-07-31T09:11:30;3.65;;;1.10;;
23432;SDS011;41331;45.412;10.992;2023-07-31T09:13:57;2.03;;;1.13;;
23432;SDS011;41331;45.412;10.992;2023-07-31T09:16:28;2.83;;;1.15;;
23432;SDS011;41331;45.412;10.992;2023-07-31T09:18:59;1.80;;;0.93;;
23432;SDS011;41331;45.412;10.992;2023-07-31T09:21:29;2.78;;;1.10;;
23432;SDS011;41331;45.412;10.992;2023-07-31T09:23:56;3.13;;;1.00;;
23432;SDS011;41331;45.412;10.992;2023-07-31T09:26:35;2.08;;;1.00;;
23432;SDS011;41331;45.412;10.992;2023-07-31T09:29:05;3.53;;;1.10;;
23432;SDS011;41331;45.412;10.992;2023-07-31T09:34:06;2.03;;;1.08;;
23432;SDS011;41331;45.412;10.992;2023-07-31T09:36:40;2.25;;;0.93;;
23432;SDS011;41331;45.412;10.992;2023-07-31T09:39:12;2.47;;;1.20;;
23432;SDS011;41331;45.412;10.992;2023-07-31T09:41:45;5.35;;;1.30;;
23432;SDS011;41331;45.412;10.992;2023-07-31T09:44:14;2.17;;;1.08;;
23432;SDS011;41331;45.412;10.992;2023-07-31T09:46:42;4.10;;;1.30;;
23432;SDS011;41331;45.412;10.992;2023-07-31T09:49:11;1.77;;;1.00;;
23432;SDS011;41331;45.412;10.992;2023-07-31T09:51:41;3.95;;;1.10;;
23432;SDS011;41331;45.412;10.992;2023-07-31T09:54:12;2.47;;;1.30;;
23432;SDS011;41331;45.412;10.992;2023-07-31T09:59:16;2.90;;;1.17;;
23432;SDS011;41331;45.412;10.992;2023-07-31T10:01:50;4.18;;;1.30;;
23432;SDS011;41331;45.412;10.992;2023-07-31T10:04:19;2.17;;;1.10;;
23432;SDS011;41331;45.412;10.992;2023-07-31T10:06:52;3.03;;;1.27;;
23432;SDS011;41331;45.412;10.992;2023-07-31T10:09:20;2.42;;;1.00;;
23432;SDS011;41331;45.412;10.992;2023-07-31T10:11:55;2.70;;;1.10;;
23432;SDS011;41331;45.412;10.992;2023-07-31T10:14:26;5.50;;;1.40;;
23432;SDS011;41331;45.412;10.992;2023-07-31T10:16:55;1.75;;;1.00;;
23432;SDS011;41331;45.412;10.992;2023-07-31T10:19:24;1.90;;;1.05;;
23432;SDS011;41331;45.412;10.992;2023-07-31T10:21:53;5.20;;;1.23;;
23432;SDS011;41331;45.412;10.992;2023-07-31T10:24:23;2.53;;;1.02;;
23432;SDS011;41331;45.412;10.992;2023-07-31T10:26:51;2.30;;;1.20;;
23432;SDS011;41331;45.412;10.992;2023-07-31T10:29:20;3.80;;;1.10;;
23432;SDS011;41331;45.412;10.992;2023-07-31T10:31:51;2.20;;;1.10;;
23432;SDS011;41331;45.412;10.992;2023-07-31T10:34:19;2.88;;;1.33;;
23432;SDS011;41331;45.412;10.992;2023-07-31T10:36:47;3.05;;;1.10;;
23432;SDS011;41331;45.412;10.992;2023-07-31T10:39:37;4.68;;;1.20;;
23432;SDS011;41331;45.412;10.992;2023-07-31T10:42:10;2.97;;;1.20;;
23432;SDS011;41331;45.412;10.992;2023-07-31T10:44:44;4.50;;;1.40;;
23432;SDS011;41331;45.412;10.992;2023-07-31T10:47:17;2.72;;;1.50;;
23432;SDS011;41331;45.412;10.992;2023-07-31T10:49:45;1.90;;;1.02;;
23432;SDS011;41331;45.412;10.992;2023-07-31T10:52:20;2.28;;;1.33;;
23432;SDS011;41331;45.412;10.992;2023-07-31T10:57:44;2.55;;;1.10;;
23432;SDS011;41331;45.412;10.992;2023-07-31T11:00:20;5.40;;;1.30;;
23432;SDS011;41331;45.412;10.992;2023-07-31T11:08:18;4.80;;;1.05;;
23432;SDS011;41331;45.412;10.992;2023-07-31T11:11:04;2.70;;;1.00;;
23432;SDS011;41331;45.412;10.992;2023-07-31T11:16:07;3.13;;;1.15;;
23432;SDS011;41331;45.412;10.992;2023-07-31T11:18:37;2.63;;;1.10;;
23432;SDS011;41331;45.412;10.992;2023-07-31T11:21:06;2.95;;;1.25;;
23432;SDS011;41331;45.412;10.992;2023-07-31T11:23:35;2.60;;;1.23;;
23432;SDS011;41331;45.412;10.992;2023-07-31T11:26:04;4.60;;;1.30;;
23432;SDS011;41331;45.412;10.992;2023-07-31T11:28:33;1.92;;;1.10;;
23432;SDS011;41331;45.412;10.992;2023-07-31T11:31:02;3.33;;;1.30;;
23432;SDS011;41331;45.412;10.992;2023-07-31T11:33:30;1.83;;;1.10;;
23432;SDS011;41331;45.412;10.992;2023-07-31T11:35:58;2.05;;;0.93;;
23432;SDS011;41331;45.412;10.992;2023-07-31T11:38:26;2.47;;;1.13;;
23432;SDS011;41331;45.412;10.992;2023-07-31T11:40:59;4.13;;;1.20;;
23432;SDS011;41331;45.412;10.992;2023-07-31T11:43:30;2.78;;;1.15;;
23432;SDS011;41331;45.412;10.992;2023-07-31T11:45:59;2.15;;;1.23;;
23432;SDS011;41331;45.412;10.992;2023-07-31T11:48:31;5.28;;;1.30;;
23432;SDS011;41331;45.412;10.992;2023-07-31T11:51:05;3.38;;;1.30;;
23432;SDS011;41331;45.412;10.992;2023-07-31T11:53:43;3.03;;;1.48;;
23432;SDS011;41331;45.412;10.992;2023-07-31T11:56:13;2.67;;;1.20;;
23432;SDS011;41331;45.412;10.992;2023-07-31T11:58:43;4.72;;;1.70;;
23432;SDS011;41331;45.412;10.992;2023-07-31T12:01:14;3.30;;;1.15;;
23432;SDS011;41331;45.412;10.992;2023-07-31T12:03:48;3.00;;;1.10;;
23432;SDS011;41331;45.412;10.992;2023-07-31T12:06:19;5.07;;;1.30;;
23432;SDS011;41331;45.412;10.992;2023-07-31T12:08:48;2.10;;;1.20;;
23432;SDS011;41331;45.412;10.992;2023-07-31T12:11:16;8.00;;;1.17;;
23432;SDS011;41331;45.412;10.992;2023-07-31T12:13:45;2.88;;;1.05;;
23432;SDS011;41331;45.412;10.992;2023-07-31T12:16:12;3.17;;;1.17;;
23432;SDS011;41331;45.412;10.992;2023-07-31T12:18:40;2.30;;;1.20;;
23432;SDS011;41331;45.412;10.992;2023-07-31T12:21:08;6.13;;;1.10;;
23432;SDS011;41331;45.412;10.992;2023-07-31T12:23:38;3.23;;;1.20;;
23432;SDS011;41331;45.412;10.992;2023-07-31T12:26:10;4.68;;;1.00;;
23432;SDS011;41331;45.412;10.992;2023-07-31T12:33:45;2.28;;;0.95;;
23432;SDS011;41331;45.412;10.992;2023-07-31T12:36:15;3.28;;;1.10;;
23432;SDS011;41331;45.412;10.992;2023-07-31T12:38:44;3.35;;;1.10;;
23432;SDS011;41331;45.412;10.992;2023-07-31T12:41:11;2.65;;;0.90;;
23432;SDS011;41331;45.412;10.992;2023-07-31T12:43:41;3.05;;;1.05;;
23432;SDS011;41331;45.412;10.992;2023-07-31T12:46:11;2.80;;;1.20;;
23432;SDS011;41331;45.412;10.992;2023-07-31T12:48:39;2.28;;;1.10;;
23432;SDS011;41331;45.412;10.992;2023-07-31T12:51:07;2.88;;;1.02;;
23432;SDS011;41331;45.412;10.992;2023-07-31T12:53:35;2.17;;;0.90;;
23432;SDS011;41331;45.412;10.992;2023-07-31T12:56:02;2.28;;;1.10;;
23432;SDS011;41331;45.412;10.992;2023-07-31T12:58:30;1.98;;;0.95;;
23432;SDS011;41331;45.412;10.992;2023-07-31T13:00:58;2.22;;;0.98;;
23432;SDS011;41331;45.412;10.992;2023-07-31T13:03:25;1.77;;;0.90;;
23432;SDS011;41331;45.412;10.992;2023-07-31T13:05:53;2.50;;;1.08;;
23432;SDS011;41331;45.412;10.992;2023-07-31T13:08:21;4.95;;;1.20;;
23432;SDS011;41331;45.412;10.992;2023-07-31T13:10:48;1.77;;;0.70;;
23432;SDS011;41331;45.412;10.992;2023-07-31T13:13:16;2.08;;;1.00;;
23432;SDS011;41331;45.412;10.992;2023-07-31T13:15:43;2.03;;;0.98;;
23432;SDS011;41331;45.412;10.992;2023-07-31T13:18:12;3.38;;;1.10;;
23432;SDS011;41331;45.412;10.992;2023-07-31T13:20:39;2.63;;;1.20;;
23432;SDS011;41331;45.412;10.992;2023-07-31T13:23:06;4.75;;;1.10;;
23432;SDS011;41331;45.412;10.992;2023-07-31T13:25:35;4.03;;;1.10;;
23432;SDS011;41331;45.412;10.992;2023-07-31T13:28:03;2.05;;;1.10;;
23432;SDS011;41331;45.412;10.992;2023-07-31T13:30:30;2.28;;;1.10;;
23432;SDS011;41331;45.412;10.992;2023-07-31T13:32:58;2.22;;;1.30;;
23432;SDS011;41331;45.412;10.992;2023-07-31T13:35:25;3.00;;;1.00;;
23432;SDS011;41331;45.412;10.992;2023-07-31T13:37:53;2.13;;;1.20;;
23432;SDS011;41331;45.412;10.992;2023-07-31T13:40:21;5.25;;;1.40;;
23432;SDS011;41331;45.412;10.992;2023-07-31T13:42:49;4.20;;;1.20;;
23432;SDS011;41331;45.412;10.992;2023-07-31T13:45:16;2.25;;;1.00;;
23432;SDS011;41331;45.412;10.992;2023-07-31T13:47:43;6.03;;;1.05;;
23432;SDS011;41331;45.412;10.992;2023-07-31T13:50:11;2.05;;;1.00;;
23432;SDS011;41331;45.412;10.992;2023-07-31T13:52:38;2.85;;;1.27;;
23432;SDS011;41331;45.412;10.992;2023-07-31T13:55:05;3.65;;;1.35;;
23432;SDS011;41331;45.412;10.992;2023-07-31T13:57:33;3.80;;;1.40;;
23432;SDS011;41331;45.412;10.992;2023-07-31T14:00:01;2.20;;;1.30;;
23432;SDS011;41331;45.412;10.992;2023-07-31T14:02:31;3.25;;;1.15;;
23432;SDS011;41331;45.412;10.992;2023-07-31T14:04:58;2.47;;;1.33;;
23432;SDS011;41331;45.412;10.992;2023-07-31T14:07:26;3.53;;;1.13;;
23432;SDS011;41331;45.412;10.992;2023-07-31T14:09:53;2.85;;;1.35;;
23432;SDS011;41331;45.412;10.992;2023-07-31T14:12:20;3.67;;;1.55;;
23432;SDS011;41331;45.412;10.992;2023-07-31T14:15:08;2.80;;;1.30;;
23432;SDS011;41331;45.412;10.992;2023-07-31T14:17:36;3.22;;;1.42;;
23432;SDS011;41331;45.412;10.992;2023-07-31T14:20:03;3.20;;;1.50;;
23432;SDS011;41331;45.412;10.992;2023-07-31T14:22:32;4.80;;;1.50;;
23432;SDS011;41331;45.412;10.992;2023-07-31T14:25:01;5.40;;;1.60;;
23432;SDS011;41331;45.412;10.992;2023-07-31T14:27:28;2.70;;;1.55;;
23432;SDS011;41331;45.412;10.992;2023-07-31T14:29:56;3.85;;;1.95;;
23432;SDS011;41331;45.412;10.992;2023-07-31T14:32:23;2.92;;;1.60;;
23432;SDS011;41331;45.412;10.992;2023-07-31T14:34:53;3.97;;;1.30;;
23432;SDS011;41331;45.412;10.992;2023-07-31T14:37:21;2.50;;;1.38;;
23432;SDS011;41331;45.412;10.992;2023-07-31T14:39:49;3.17;;;1.48;;
23432;SDS011;41331;45.412;10.992;2023-07-31T14:42:17;3.75;;;1.42;;
23432;SDS011;41331;45.412;10.992;2023-07-31T14:44:46;6.18;;;1.35;;
23432;SDS011;41331;45.412;10.992;2023-07-31T14:47:17;2.57;;;1.37;;
23432;SDS011;41331;45.412;10.992;2023-07-31T14:49:44;4.97;;;1.60;;
23432;SDS011;41331;45.412;10.992;2023-07-31T14:52:13;4.95;;;1.50;;
23432;SDS011;41331;45.412;10.992;2023-07-31T14:54:40;3.60;;;1.48;;
23432;SDS011;41331;45.412;10.992;2023-07-31T14:57:08;2.80;;;1.63;;
23432;SDS011;41331;45.412;10.992;2023-07-31T14:59:35;3.20;;;1.13;;
23432;SDS011;41331;45.412;10.992;2023-07-31T15:02:03;2.42;;;1.40;;
23432;SDS011;41331;45.412;10.992;2023-07-31T15:04:30;3.35;;;1.55;;
23432;SDS011;41331;45.412;10.992;2023-07-31T15:07:00;4.07;;;1.30;;
23432;SDS011;41331;45.412;10.992;2023-07-31T15:09:28;3.22;;;1.50;;